createdAt,value
2022-08-22T00:00:14.685Z,9.98
2022-08-22T00:03:00.779Z,10.90
2022-08-22T00:05:47.381Z,10.27
2022-08-22T00:10:58.362Z,10.02
2022-08-22T00:16:10.546Z,9.63
2022-08-22T00:21:15.164Z,9.02
2022-08-22T00:26:25.240Z,10.00
2022-08-22T00:31:42.821Z,9.15
2022-08-22T00:37:00.868Z,9.30
2022-08-22T00:42:37.130Z,10.23
2022-08-22T00:47:41.354Z,9.50
2022-08-22T00:53:04.258Z,9.57
2022-08-22T00:58:11.633Z,9.27
2022-08-22T01:03:34.068Z,9.45
2022-08-22T01:08:44.174Z,7.93
2022-08-22T01:14:16.333Z,8.60
2022-08-22T01:19:49.977Z,7.93
2022-08-22T01:30:51.727Z,7.78
2022-08-22T01:36:21.593Z,8.82
2022-08-22T01:41:52.247Z,8.60
2022-08-22T01:47:44.072Z,7.45
2022-08-22T01:52:48.482Z,8.07
2022-08-22T01:58:00.784Z,7.82
2022-08-22T02:03:21.919Z,8.90
2022-08-22T02:08:46.640Z,8.15
2022-08-22T02:14:20.151Z,8.25
2022-08-22T02:19:41.280Z,8.88
2022-08-22T02:24:44.845Z,8.68
2022-08-22T02:30:10.487Z,9.10
2022-08-22T02:35:37.927Z,7.43
2022-08-22T02:40:44.271Z,8.25
2022-08-22T02:46:08.410Z,8.63
2022-08-22T02:51:27.915Z,8.52
2022-08-22T02:56:45.554Z,9.50
2022-08-22T03:01:57.542Z,9.40
2022-08-22T03:07:08.675Z,9.68
2022-08-22T03:12:49.380Z,10.82
2022-08-22T03:18:21.915Z,9.88
2022-08-22T03:23:42.607Z,10.02
2022-08-22T03:28:58.983Z,10.65
2022-08-22T03:34:22.636Z,10.77
2022-08-22T03:39:45.093Z,10.38
2022-08-22T03:45:19.478Z,10.43
2022-08-22T03:50:42.828Z,9.57
2022-08-22T03:55:50.193Z,10.10
2022-08-22T04:01:19.686Z,10.52
2022-08-22T04:06:39.556Z,9.88
2022-08-22T04:11:53.559Z,9.65
2022-08-22T04:17:32.469Z,10.43
2022-08-22T04:22:59.133Z,9.15
2022-08-22T04:28:22.645Z,9.07
2022-08-22T04:33:37.366Z,8.27
2022-08-22T04:39:01.787Z,7.88
2022-08-22T04:44:24.588Z,9.27
2022-08-22T04:49:22.895Z,9.68
2022-08-22T04:54:26.783Z,8.80
2022-08-22T04:59:26.452Z,9.40
2022-08-22T05:04:31.875Z,9.68
2022-08-22T05:09:36.326Z,9.38
2022-08-22T05:14:43.353Z,8.88
2022-08-22T05:19:47.330Z,9.90
2022-08-22T05:24:52.066Z,9.75
2022-08-22T05:30:18.651Z,9.30
2022-08-22T05:35:27.557Z,9.85
2022-08-22T05:40:30.389Z,9.30
2022-08-22T05:45:29.781Z,8.48
2022-08-22T05:50:40.921Z,9.63
2022-08-22T05:55:46.769Z,8.82
2022-08-22T06:00:49.468Z,8.75
2022-08-22T06:05:52.400Z,8.82
2022-08-22T06:10:59.591Z,9.05
2022-08-22T06:16:21.137Z,9.00
2022-08-22T06:21:23.900Z,8.88
2022-08-22T06:26:22.768Z,8.90
2022-08-22T06:31:30.965Z,10.27
2022-08-22T06:36:44.440Z,8.68
2022-08-22T06:42:16.855Z,9.15
2022-08-22T06:47:44.249Z,8.50
2022-08-22T06:53:06.159Z,8.20
2022-08-22T06:58:19.190Z,9.48
2022-08-22T07:03:37.869Z,8.75
2022-08-22T07:08:50.635Z,8.82
2022-08-22T07:14:09.247Z,8.00
2022-08-22T07:19:50.288Z,7.30
2022-08-22T07:24:56.827Z,6.82
2022-08-22T07:30:03.940Z,6.85
2022-08-22T07:35:24.522Z,7.53
2022-08-22T07:41:03.793Z,7.82
2022-08-22T07:46:23.270Z,8.02
2022-08-22T07:51:32.152Z,8.18
2022-08-22T07:56:37.618Z,6.88
2022-08-22T08:01:35.959Z,6.82
2022-08-22T08:06:34.857Z,6.65
2022-08-22T08:11:40.351Z,6.38
2022-08-22T08:16:58.101Z,5.88
2022-08-22T08:21:59.571Z,6.25
2022-08-22T08:27:24.520Z,6.15
2022-08-22T08:32:38.707Z,6.68
2022-08-22T08:37:55.557Z,5.80
2022-08-22T08:43:36.639Z,6.45
2022-08-22T08:49:17.714Z,6.47
2022-08-22T08:54:44.269Z,6.63
2022-08-22T09:00:13.437Z,6.10
2022-08-22T09:05:29.782Z,6.90
2022-08-22T09:10:31.662Z,7.40
2022-08-22T09:16:05.976Z,7.07
2022-08-22T09:21:27.944Z,6.65
2022-08-22T09:26:37.856Z,7.00
2022-08-22T09:31:59.682Z,6.63
2022-08-22T09:37:29.398Z,6.90
2022-08-22T09:42:46.419Z,6.15
2022-08-22T09:48:00.272Z,6.50
2022-08-22T09:53:24.137Z,6.25
2022-08-22T09:59:01.195Z,6.10
2022-08-22T10:04:24.885Z,4.85
2022-08-22T10:09:39.252Z,5.40
2022-08-22T10:15:15.186Z,4.82
2022-08-22T10:20:24.511Z,8.48
2022-08-22T10:25:26.060Z,5.65
2022-08-22T10:31:45.042Z,5.25
2022-08-22T10:36:39.693Z,5.15
2022-08-22T10:41:42.658Z,5.30
2022-08-22T10:47:02.257Z,5.32
2022-08-22T10:52:22.290Z,5.80
2022-08-22T10:57:38.974Z,5.00
2022-08-22T11:03:03.977Z,5.43
2022-08-22T11:08:18.791Z,5.60
2022-08-22T11:13:54.134Z,5.28
2022-08-22T11:19:20.591Z,4.77
2022-08-22T11:25:06.212Z,4.80
2022-08-22T11:30:18.279Z,4.90
2022-08-22T11:35:24.229Z,5.68
2022-08-22T11:40:38.656Z,5.75
2022-08-22T11:45:43.339Z,4.88
2022-08-22T11:50:53.809Z,4.82
2022-08-22T11:56:22.950Z,4.63
2022-08-22T12:01:51.433Z,4.90
2022-08-22T12:06:56.605Z,4.45
2022-08-22T12:12:23.722Z,4.82
2022-08-22T12:18:01.016Z,4.57
2022-08-22T12:24:00.840Z,4.85
2022-08-22T12:29:47.839Z,4.40
2022-08-22T12:35:14.057Z,6.03
2022-08-22T12:41:27.650Z,5.30
2022-08-22T12:47:24.891Z,4.78
2022-08-22T12:52:51.602Z,5.43
2022-08-22T12:58:14.736Z,4.90
2022-08-22T13:03:40.805Z,4.65
2022-08-22T13:08:47.822Z,4.78
2022-08-22T13:14:06.825Z,4.85
2022-08-22T13:19:16.770Z,6.10
2022-08-22T13:24:39.202Z,4.30
2022-08-22T13:30:00.153Z,4.32
2022-08-22T13:35:51.773Z,5.07
2022-08-22T13:40:52.978Z,4.55
2022-08-22T13:45:57.461Z,4.43
2022-08-22T13:51:14.664Z,4.47
2022-08-22T13:56:35.286Z,4.93
2022-08-22T14:01:50.185Z,4.03
2022-08-22T14:07:06.524Z,5.05
2022-08-22T14:12:33.269Z,4.30
2022-08-22T14:17:43.161Z,4.22
2022-08-22T14:22:46.269Z,4.35
2022-08-22T14:27:54.446Z,3.70
2022-08-22T14:33:02.907Z,4.05
2022-08-22T14:38:46.368Z,4.43
2022-08-22T14:43:51.014Z,3.88
2022-08-22T14:49:41.510Z,4.53
2022-08-22T14:55:04.935Z,4.63
2022-08-22T15:00:38.724Z,4.60
2022-08-22T15:05:47.318Z,4.90
2022-08-22T15:11:06.838Z,3.73
2022-08-22T15:16:24.379Z,4.40
2022-08-22T15:21:41.389Z,4.32
2022-08-22T15:27:01.787Z,4.38
2022-08-22T15:32:10.431Z,3.70
2022-08-22T15:37:27.861Z,4.07
2022-08-22T15:47:56.823Z,3.90
2022-08-22T15:53:36.566Z,3.97
2022-08-22T15:59:07.860Z,4.05
2022-08-22T16:04:16.494Z,4.97
2022-08-22T16:10:04.591Z,4.32
2022-08-22T16:15:59.352Z,5.43
2022-08-22T16:21:17.857Z,5.82
2022-08-22T16:26:22.144Z,6.05
2022-08-22T16:31:47.148Z,7.97
2022-08-22T16:37:18.383Z,7.78
2022-08-22T16:42:19.601Z,6.75
2022-08-22T16:47:22.589Z,4.85
2022-08-22T16:57:28.579Z,5.07
2022-08-22T17:03:24.371Z,4.93
2022-08-22T17:08:55.772Z,4.82
2022-08-22T17:14:13.094Z,5.75
2022-08-22T17:19:34.710Z,5.40
2022-08-22T17:24:46.876Z,5.88
2022-08-22T17:29:57.183Z,7.03
2022-08-22T17:35:00.296Z,7.47
2022-08-22T17:40:00.039Z,6.78
2022-08-22T17:45:08.719Z,6.15
2022-08-22T17:50:33.489Z,6.10
2022-08-22T17:55:58.421Z,4.53
2022-08-22T18:01:15.005Z,4.75
2022-08-22T18:06:26.398Z,4.18
2022-08-22T18:12:14.790Z,4.20
2022-08-22T18:17:29.274Z,4.00
2022-08-22T18:22:41.094Z,3.75
2022-08-22T18:27:54.744Z,3.17
2022-08-22T18:33:18.764Z,3.72
2022-08-22T18:38:36.319Z,3.90
2022-08-22T18:43:47.337Z,3.97
2022-08-22T18:49:18.043Z,3.85
2022-08-22T18:54:42.755Z,4.57
2022-08-22T19:00:17.245Z,3.60
2022-08-22T19:05:55.993Z,3.20
2022-08-22T19:11:14.732Z,2.67
2022-08-22T19:16:47.247Z,3.83
2022-08-22T19:22:35.737Z,3.22
2022-08-22T19:28:07.018Z,4.18
2022-08-22T19:33:41.289Z,2.88
2022-08-22T19:39:04.963Z,3.13
2022-08-22T19:44:34.616Z,2.80
2022-08-22T19:49:44.360Z,2.90
2022-08-22T19:55:05.092Z,3.85
2022-08-22T20:00:12.061Z,3.90
2022-08-22T20:05:35.198Z,2.70
2022-08-22T20:11:06.565Z,3.53
2022-08-22T20:16:15.101Z,2.90
2022-08-22T20:21:49.003Z,3.42
2022-08-22T20:27:12.948Z,3.15
2022-08-22T20:32:15.824Z,3.47
2022-08-22T20:37:35.999Z,3.33
2022-08-22T20:42:52.116Z,3.00
2022-08-22T20:47:51.125Z,3.78
2022-08-22T20:52:54.678Z,3.47
2022-08-22T20:58:00.214Z,3.50
2022-08-22T21:03:01.039Z,3.20
2022-08-22T21:08:13.182Z,4.40
2022-08-22T21:13:27.710Z,3.42
2022-08-22T21:18:30.247Z,3.08
2022-08-22T21:23:29.851Z,5.57
2022-08-22T21:28:42.206Z,3.85
2022-08-22T21:33:46.649Z,3.55
2022-08-22T21:38:55.733Z,4.60
2022-08-22T21:43:53.888Z,3.30
2022-08-22T21:49:04.981Z,2.97
2022-08-22T21:54:27.194Z,3.42
2022-08-22T21:59:51.417Z,3.70
2022-08-22T22:05:01.875Z,3.07
2022-08-22T22:10:05.009Z,3.45
2022-08-22T22:15:07.313Z,4.05
2022-08-22T22:20:07.289Z,3.55
2022-08-22T22:25:06.770Z,3.60
2022-08-22T22:30:28.209Z,3.08
2022-08-22T22:35:31.312Z,2.95
2022-08-22T22:40:35.740Z,4.00
2022-08-22T22:45:38.948Z,4.00
2022-08-22T22:50:41.267Z,5.22
2022-08-22T22:56:00.255Z,3.67
2022-08-22T23:01:17.002Z,4.13
2022-08-22T23:06:19.073Z,4.38
2022-08-22T23:11:24.149Z,4.40
2022-08-22T23:16:26.737Z,3.70
2022-08-22T23:21:28.861Z,4.10
2022-08-22T23:26:33.805Z,3.65
2022-08-22T23:31:43.202Z,3.88
2022-08-22T23:36:47.969Z,4.05
2022-08-22T23:41:50.175Z,4.18
2022-08-22T23:46:53.200Z,4.25
2022-08-22T23:51:55.828Z,5.25
2022-08-22T23:56:56.980Z,4.30
